Time,TemperatureF,DewpointF,PressureIn,WindDirection,WindDirectionDegrees,WindSpeedMPH,WindSpeedGustMPH,Humidity,HourlyPrecipIn,Conditions,Clouds,dailyrainin,SoftwareType,DateUTC
2013-06-09 11:03:00,58.0,50.0,29.91,ESE,115,2.0,6.0,76,0.00,,,0.00,,2013-06-09 16:03:00,
2013-06-09 11:13:00,58.0,50.0,29.91,ESE,115,2.0,6.0,76,0.00,,,0.00,,2013-06-09 16:13:00,
2013-06-09 11:23:00,59.0,51.0,29.91,East,92,1.0,6.0,75,0.00,,,0.00,,2013-06-09 16:23:00,
2013-06-09 11:33:00,60.0,52.0,29.91,SSW,202,0.0,3.0,74,0.00,,,0.00,,2013-06-09 16:33:00,
2013-06-09 11:42:00,60.0,52.0,29.91,SSW,202,0.0,3.0,74,0.00,,,0.00,,2013-06-09 16:42:00,
2013-06-09 11:53:00,60.0,52.0,29.91,SSW,202,0.0,3.0,74,0.00,,,0.00,,2013-06-09 16:53:00,
2013-06-09 12:02:00,62.0,52.0,29.91,ESE,105,3.0,10.0,70,0.00,,,0.00,,2013-06-09 17:02:00,
2013-06-09 12:12:00,62.0,52.0,29.91,ESE,105,3.0,10.0,70,0.00,,,0.00,,2013-06-09 17:12:00,
2013-06-09 12:22:00,63.0,53.0,29.90,ESE,110,5.0,12.0,69,0.00,,,0.00,,2013-06-09 17:22:00,
2013-06-09 12:32:00,63.0,53.0,29.90,ESE,110,5.0,12.0,69,0.00,,,0.00,,2013-06-09 17:32:00,
2013-06-09 12:42:00,63.0,53.0,29.90,ESE,110,5.0,12.0,69,0.00,,,0.00,,2013-06-09 17:42:00,
2013-06-09 12:52:00,65.0,54.0,29.89,ESE,110,5.0,11.0,67,0.00,,,0.00,,2013-06-09 17:52:00,
2013-06-09 13:02:00,65.0,54.0,29.89,ESE,110,5.0,11.0,67,0.00,,,0.00,,2013-06-09 18:02:00,
2013-06-09 13:12:00,65.0,54.0,29.89,ESE,110,5.0,11.0,67,0.00,,,0.00,,2013-06-09 18:12:00,
2013-06-09 13:21:00,65.0,53.0,29.88,ESE,103,5.0,12.0,66,0.00,,,0.00,,2013-06-09 18:21:00,
2013-06-09 13:32:00,65.0,53.0,29.88,ESE,103,5.0,12.0,66,0.00,,,0.00,,2013-06-09 18:32:00,
2013-06-09 13:42:00,65.0,53.0,29.88,ESE,103,5.0,12.0,66,0.00,,,0.00,,2013-06-09 18:42:00,
2013-06-09 13:52:00,65.0,53.0,29.88,ESE,103,5.0,12.0,66,0.00,,,0.00,,2013-06-09 18:52:00,
2013-06-09 14:32:00,65.0,52.0,29.85,East,90,4.0,4.0,63,0.00,,,0.00,,2013-06-09 19:32:00,
2013-06-09 14:43:00,65.0,52.0,29.85,East,90,4.0,4.0,63,0.00,,,0.00,,2013-06-09 19:43:00,
2013-06-09 14:52:00,65.0,52.0,29.85,East,90,4.0,4.0,63,0.00,,,0.00,,2013-06-09 19:52:00,
2013-06-09 15:02:00,65.0,52.0,29.85,East,90,4.0,4.0,63,0.00,,,0.00,,2013-06-09 20:02:00,
2013-06-09 15:12:00,65.0,52.0,29.85,East,90,4.0,4.0,63,0.00,,,0.00,,2013-06-09 20:12:00,
2013-06-09 15:32:00,69.0,55.0,29.84,ESE,111,3.0,8.0,61,0.00,,,0.00,,2013-06-09 20:32:00,
2013-06-09 15:42:00,69.0,55.0,29.84,ESE,111,3.0,8.0,61,0.00,,,0.00,,2013-06-09 20:42:00,
2013-06-09 15:52:00,69.0,55.0,29.84,ESE,111,3.0,8.0,61,0.00,,,0.00,,2013-06-09 20:52:00,
2013-06-09 16:02:00,69.0,55.0,29.83,East,84,3.0,8.0,61,0.00,,,0.00,,2013-06-09 21:02:00,
2013-06-09 16:12:00,69.0,55.0,29.83,East,84,3.0,8.0,61,0.00,,,0.00,,2013-06-09 21:12:00,
2013-06-09 16:22:00,69.0,55.0,29.83,East,84,3.0,8.0,61,0.00,,,0.00,,2013-06-09 21:22:00,
2013-06-09 16:33:00,70.0,55.0,29.82,East,85,3.0,8.0,60,0.00,,,0.00,,2013-06-09 21:33:00,
2013-06-09 16:44:00,70.0,55.0,29.82,East,85,3.0,8.0,60,0.00,,,0.00,,2013-06-09 21:44:00,
2013-06-09 16:53:00,69.0,55.0,29.81,ENE,77,4.0,9.0,62,0.00,,,0.00,,2013-06-09 21:53:00,
2013-06-09 17:02:00,69.0,55.0,29.81,ENE,77,4.0,9.0,62,0.00,,,0.00,,2013-06-09 22:02:00,
2013-06-09 17:13:00,68.0,54.0,29.82,East,86,4.0,9.0,62,0.00,,,0.00,,2013-06-09 22:13:00,
2013-06-09 17:23:00,68.0,54.0,29.82,East,86,4.0,9.0,62,0.00,,,0.00,,2013-06-09 22:23:00,
2013-06-09 17:33:00,68.0,54.0,29.82,East,86,4.0,9.0,62,0.00,,,0.00,,2013-06-09 22:33:00,
2013-06-09 17:42:00,68.0,54.0,29.82,East,86,4.0,9.0,62,0.00,,,0.00,,2013-06-09 22:42:00,
2013-06-09 17:52:00,66.0,53.0,29.80,East,87,4.0,10.0,64,0.00,,,0.00,,2013-06-09 22:52:00,
2013-06-09 18:02:00,67.0,55.0,29.80,East,96,3.0,7.0,65,0.00,,,0.00,,2013-06-09 23:02:00,
2013-06-09 18:12:00,68.0,55.0,29.80,East,98,5.0,11.0,64,0.00,,,0.00,,2013-06-09 23:12:00,
2013-06-09 18:22:00,68.0,55.0,29.80,East,98,5.0,11.0,64,0.00,,,0.00,,2013-06-09 23:22:00,
2013-06-09 18:32:00,68.0,55.0,29.79,East,101,3.0,8.0,64,0.00,,,0.00,,2013-06-09 23:32:00,
2013-06-09 18:42:00,68.0,55.0,29.79,East,101,3.0,8.0,64,0.00,,,0.00,,2013-06-09 23:42:00,
2013-06-09 18:52:00,67.0,55.0,29.79,ESE,113,3.0,13.0,65,0.00,,,0.00,,2013-06-09 23:52:00,
2013-06-09 19:02:00,66.0,55.0,29.79,ESE,105,3.0,8.0,68,0.00,,,0.00,,2013-06-10 00:02:00,
2013-06-09 19:12:00,66.0,55.0,29.79,ESE,105,3.0,8.0,68,0.00,,,0.00,,2013-06-10 00:12:00,
2013-06-09 19:22:00,67.0,56.0,29.79,East,96,4.0,11.0,68,0.00,,,0.00,,2013-06-10 00:22:00,
2013-06-09 19:32:00,66.0,56.0,29.79,East,97,4.0,12.0,69,0.00,,,0.00,,2013-06-10 00:32:00,
2013-06-09 19:42:00,66.0,56.0,29.79,East,97,4.0,12.0,69,0.00,,,0.00,,2013-06-10 00:42:00,
2013-06-09 19:52:00,66.0,56.0,29.78,East,90,4.0,11.0,69,0.00,,,0.00,,2013-06-10 00:52:00,
2013-06-09 20:02:00,65.0,55.0,29.78,East,87,4.0,10.0,69,0.00,,,0.00,,2013-06-10 01:02:00,
2013-06-09 20:12:00,65.0,55.0,29.78,East,87,4.0,10.0,69,0.00,,,0.00,,2013-06-10 01:12:00,
2013-06-09 20:22:00,65.0,54.0,29.78,East,95,5.0,12.0,68,0.00,,,0.00,,2013-06-10 01:22:00,
2013-06-09 20:32:00,65.0,54.0,29.78,East,99,4.0,11.0,68,0.00,,,0.00,,2013-06-10 01:32:00,
2013-06-09 20:42:00,65.0,54.0,29.78,East,99,4.0,11.0,68,0.00,,,0.00,,2013-06-10 01:42:00,
2013-06-09 20:52:00,64.0,54.0,29.78,ESE,108,2.0,7.0,69,0.00,,,0.00,,2013-06-10 01:52:00,
2013-06-09 21:02:00,64.0,54.0,29.78,East,98,0.0,5.0,69,0.00,,,0.00,,2013-06-10 02:02:00,
2013-06-09 21:12:00,64.0,54.0,29.78,East,98,0.0,5.0,69,0.00,,,0.00,,2013-06-10 02:12:00,
2013-06-09 21:22:00,64.0,54.0,29.78,East,98,0.0,5.0,69,0.00,,,0.00,,2013-06-10 02:22:00,
2013-06-09 21:32:00,64.0,54.0,29.78,East,98,0.0,5.0,69,0.00,,,0.00,,2013-06-10 02:32:00,